sensor_id;sensor_type;location;lat;lon;timestamp;P1;durP1;ratioP1;P2;durP2;ratioP2
59294;SDS011;45067;44.654;20.200;2024-01-30T00:02:17;98.80;;;47.67;;
59294;SDS011;45067;44.654;20.200;2024-01-30T00:04:43;106.47;;;50.95;;
59294;SDS011;45067;44.654;20.200;2024-01-30T00:07:09;103.43;;;49.25;;
59294;SDS011;45067;44.654;20.200;2024-01-30T00:09:35;107.82;;;51.80;;
59294;SDS011;45067;44.654;20.200;2024-01-30T00:12:01;106.93;;;52.20;;
59294;SDS011;45067;44.654;20.200;2024-01-30T00:14:27;105.50;;;51.25;;
59294;SDS011;45067;44.654;20.200;2024-01-30T00:16:53;109.88;;;51.70;;
59294;SDS011;45067;44.654;20.200;2024-01-30T00:19:20;110.25;;;55.35;;
59294;SDS011;45067;44.654;20.200;2024-01-30T00:21:47;117.22;;;55.60;;
59294;SDS011;45067;44.654;20.200;2024-01-30T00:24:13;103.75;;;50.58;;
59294;SDS011;45067;44.654;20.200;2024-01-30T00:26:41;90.57;;;47.80;;
59294;SDS011;45067;44.654;20.200;2024-01-30T00:29:07;86.60;;;44.40;;
59294;SDS011;45067;44.654;20.200;2024-01-30T00:31:34;95.20;;;47.75;;
59294;SDS011;45067;44.654;20.200;2024-01-30T00:34:00;83.95;;;43.58;;
59294;SDS011;45067;44.654;20.200;2024-01-30T00:36:28;91.57;;;47.40;;
59294;SDS011;45067;44.654;20.200;2024-01-30T00:38:55;79.78;;;43.45;;
59294;SDS011;45067;44.654;20.200;2024-01-30T00:41:21;81.88;;;44.78;;
59294;SDS011;45067;44.654;20.200;2024-01-30T00:43:47;87.25;;;41.95;;
59294;SDS011;45067;44.654;20.200;2024-01-30T00:46:14;86.50;;;44.75;;
59294;SDS011;45067;44.654;20.200;2024-01-30T00:48:40;76.53;;;41.72;;
59294;SDS011;45067;44.654;20.200;2024-01-30T00:51:06;79.22;;;43.58;;
59294;SDS011;45067;44.654;20.200;2024-01-30T00:53:32;88.85;;;45.25;;
59294;SDS011;45067;44.654;20.200;2024-01-30T00:55:58;82.72;;;43.95;;
59294;SDS011;45067;44.654;20.200;2024-01-30T00:58:24;89.70;;;45.33;;
59294;SDS011;45067;44.654;20.200;2024-01-30T01:04:13;100.20;;;49.20;;
59294;SDS011;45067;44.654;20.200;2024-01-30T01:06:43;102.22;;;50.78;;
59294;SDS011;45067;44.654;20.200;2024-01-30T01:09:33;93.38;;;46.45;;
59294;SDS011;45067;44.654;20.200;2024-01-30T01:12:29;99.18;;;50.63;;
59294;SDS011;45067;44.654;20.200;2024-01-30T01:18:21;104.70;;;52.53;;
59294;SDS011;45067;44.654;20.200;2024-01-30T01:21:52;105.82;;;53.30;;
59294;SDS011;45067;44.654;20.200;2024-01-30T01:24:50;97.32;;;46.85;;
59294;SDS011;45067;44.654;20.200;2024-01-30T01:30:00;97.78;;;46.28;;
59294;SDS011;45067;44.654;20.200;2024-01-30T01:32:44;99.30;;;50.20;;
59294;SDS011;45067;44.654;20.200;2024-01-30T01:35:32;92.45;;;47.63;;
59294;SDS011;45067;44.654;20.200;2024-01-30T01:37:59;96.72;;;48.45;;
59294;SDS011;45067;44.654;20.200;2024-01-30T01:40:47;92.50;;;47.20;;
59294;SDS011;45067;44.654;20.200;2024-01-30T01:43:31;89.32;;;45.55;;
59294;SDS011;45067;44.654;20.200;2024-01-30T01:47:01;85.63;;;44.85;;
59294;SDS011;45067;44.654;20.200;2024-01-30T01:49:46;96.32;;;47.38;;
59294;SDS011;45067;44.654;20.200;2024-01-30T01:52:43;89.95;;;46.17;;
59294;SDS011;45067;44.654;20.200;2024-01-30T01:57:58;107.32;;;54.38;;
59294;SDS011;45067;44.654;20.200;2024-01-30T02:09:03;100.10;;;49.72;;
59294;SDS011;45067;44.654;20.200;2024-01-30T02:11:30;98.63;;;50.92;;
59294;SDS011;45067;44.654;20.200;2024-01-30T02:14:05;100.63;;;51.42;;
59294;SDS011;45067;44.654;20.200;2024-01-30T02:19:27;102.72;;;50.47;;
59294;SDS011;45067;44.654;20.200;2024-01-30T02:22:28;105.07;;;53.90;;
59294;SDS011;45067;44.654;20.200;2024-01-30T02:25:15;106.32;;;53.33;;
59294;SDS011;45067;44.654;20.200;2024-01-30T02:28:16;113.75;;;57.65;;
59294;SDS011;45067;44.654;20.200;2024-01-30T02:30:58;128.57;;;61.72;;
59294;SDS011;45067;44.654;20.200;2024-01-30T02:33:26;147.40;;;70.60;;
59294;SDS011;45067;44.654;20.200;2024-01-30T02:36:18;147.20;;;70.47;;
59294;SDS011;45067;44.654;20.200;2024-01-30T02:41:27;128.98;;;61.47;;
59294;SDS011;45067;44.654;20.200;2024-01-30T02:43:54;118.13;;;58.83;;
59294;SDS011;45067;44.654;20.200;2024-01-30T02:46:45;121.78;;;58.95;;
59294;SDS011;45067;44.654;20.200;2024-01-30T02:49:29;112.72;;;58.20;;
59294;SDS011;45067;44.654;20.200;2024-01-30T02:52:34;121.18;;;60.95;;
59294;SDS011;45067;44.654;20.200;2024-01-30T02:55:23;120.93;;;61.10;;
59294;SDS011;45067;44.654;20.200;2024-01-30T02:58:15;142.77;;;67.35;;
59294;SDS011;45067;44.654;20.200;2024-01-30T03:00:45;147.63;;;75.25;;
59294;SDS011;45067;44.654;20.200;2024-01-30T03:03:28;147.80;;;73.47;;
59294;SDS011;45067;44.654;20.200;2024-01-30T03:06:44;139.50;;;68.07;;
59294;SDS011;45067;44.654;20.200;2024-01-30T03:09:33;136.88;;;68.93;;
59294;SDS011;45067;44.654;20.200;2024-01-30T03:12:01;119.55;;;63.38;;
59294;SDS011;45067;44.654;20.200;2024-01-30T03:14:33;121.88;;;61.35;;
59294;SDS011;45067;44.654;20.200;2024-01-30T03:17:42;112.82;;;56.47;;
59294;SDS011;45067;44.654;20.200;2024-01-30T03:20:22;110.43;;;52.55;;
59294;SDS011;45067;44.654;20.200;2024-01-30T03:23:09;105.22;;;54.33;;
59294;SDS011;45067;44.654;20.200;2024-01-30T03:25:54;110.80;;;53.10;;
59294;SDS011;45067;44.654;20.200;2024-01-30T03:32:00;103.10;;;51.65;;
59294;SDS011;45067;44.654;20.200;2024-01-30T03:35:01;103.25;;;52.25;;
59294;SDS011;45067;44.654;20.200;2024-01-30T03:38:03;96.07;;;50.30;;
59294;SDS011;45067;44.654;20.200;2024-01-30T03:43:14;105.28;;;53.25;;
59294;SDS011;45067;44.654;20.200;2024-01-30T03:49:03;107.18;;;55.78;;
59294;SDS011;45067;44.654;20.200;2024-01-30T04:17:40;133.65;;;62.72;;
59294;SDS011;45067;44.654;20.200;2024-01-30T04:20:43;122.20;;;59.33;;
59294;SDS011;45067;44.654;20.200;2024-01-30T04:23:52;129.30;;;61.47;;
59294;SDS011;45067;44.654;20.200;2024-01-30T04:29:38;118.18;;;58.22;;
59294;SDS011;45067;44.654;20.200;2024-01-30T04:55:58;99.53;;;51.55;;
59294;SDS011;45067;44.654;20.200;2024-01-30T04:58:50;99.22;;;51.28;;
59294;SDS011;45067;44.654;20.200;2024-01-30T05:01:16;92.00;;;47.70;;
59294;SDS011;45067;44.654;20.200;2024-01-30T05:03:52;77.63;;;41.88;;
59294;SDS011;45067;44.654;20.200;2024-01-30T05:12:06;64.43;;;32.90;;
59294;SDS011;45067;44.654;20.200;2024-01-30T05:18:29;62.25;;;33.70;;
59294;SDS011;45067;44.654;20.200;2024-01-30T05:20:57;72.82;;;38.88;;
59294;SDS011;45067;44.654;20.200;2024-01-30T05:23:24;74.35;;;36.47;;
59294;SDS011;45067;44.654;20.200;2024-01-30T05:26:00;72.32;;;39.05;;
59294;SDS011;45067;44.654;20.200;2024-01-30T05:28:30;80.00;;;41.38;;
59294;SDS011;45067;44.654;20.200;2024-01-30T05:31:01;74.55;;;39.85;;
59294;SDS011;45067;44.654;20.200;2024-01-30T05:33:27;85.57;;;44.03;;
59294;SDS011;45067;44.654;20.200;2024-01-30T05:35:54;69.50;;;38.92;;
59294;SDS011;45067;44.654;20.200;2024-01-30T05:38:25;75.70;;;41.00;;
59294;SDS011;45067;44.654;20.200;2024-01-30T05:40:59;67.05;;;37.38;;
59294;SDS011;45067;44.654;20.200;2024-01-30T05:43:28;71.18;;;39.60;;
59294;SDS011;45067;44.654;20.200;2024-01-30T05:46:03;74.90;;;40.75;;
59294;SDS011;45067;44.654;20.200;2024-01-30T05:48:32;62.58;;;32.97;;
59294;SDS011;45067;44.654;20.200;2024-01-30T05:51:00;74.10;;;37.53;;
59294;SDS011;45067;44.654;20.200;2024-01-30T05:53:26;67.60;;;37.20;;
59294;SDS011;45067;44.654;20.200;2024-01-30T05:56:02;82.43;;;40.20;;
59294;SDS011;45067;44.654;20.200;2024-01-30T05:58:29;71.03;;;39.37;;
59294;SDS011;45067;44.654;20.200;2024-01-30T06:01:01;70.25;;;37.38;;
59294;SDS011;45067;44.654;20.200;2024-01-30T06:03:28;67.13;;;34.47;;
59294;SDS011;45067;44.654;20.200;2024-01-30T06:05:58;77.07;;;38.15;;
59294;SDS011;45067;44.654;20.200;2024-01-30T06:08:25;76.60;;;38.67;;
59294;SDS011;45067;44.654;20.200;2024-01-30T06:10:53;72.22;;;38.95;;
59294;SDS011;45067;44.654;20.200;2024-01-30T06:13:22;78.75;;;39.58;;
59294;SDS011;45067;44.654;20.200;2024-01-30T06:15:50;82.68;;;41.80;;
59294;SDS011;45067;44.654;20.200;2024-01-30T06:18:17;78.45;;;40.00;;
59294;SDS011;45067;44.654;20.200;2024-01-30T06:20:44;75.70;;;38.58;;
59294;SDS011;45067;44.654;20.200;2024-01-30T06:23:31;76.85;;;36.90;;
59294;SDS011;45067;44.654;20.200;2024-01-30T06:25:57;71.30;;;37.47;;
59294;SDS011;45067;44.654;20.200;2024-01-30T06:28:23;73.97;;;38.63;;
59294;SDS011;45067;44.654;20.200;2024-01-30T06:33:39;85.82;;;42.10;;
59294;SDS011;45067;44.654;20.200;2024-01-30T06:36:14;101.43;;;41.65;;
59294;SDS011;45067;44.654;20.200;2024-01-30T06:38:42;80.85;;;40.80;;
59294;SDS011;45067;44.654;20.200;2024-01-30T06:41:08;82.47;;;41.47;;
59294;SDS011;45067;44.654;20.200;2024-01-30T06:43:34;78.65;;;41.10;;
59294;SDS011;45067;44.654;20.200;2024-01-30T06:46:11;90.72;;;42.33;;
59294;SDS011;45067;44.654;20.200;2024-01-30T06:48:38;79.75;;;40.70;;
59294;SDS011;45067;44.654;20.200;2024-01-30T06:51:05;81.97;;;40.03;;
59294;SDS011;45067;44.654;20.200;2024-01-30T06:53:31;75.28;;;38.08;;
59294;SDS011;45067;44.654;20.200;2024-01-30T06:55:58;77.13;;;38.53;;
59294;SDS011;45067;44.654;20.200;2024-01-30T06:58:27;84.57;;;41.65;;
59294;SDS011;45067;44.654;20.200;2024-01-30T07:04:00;73.68;;;38.60;;
59294;SDS011;45067;44.654;20.200;2024-01-30T07:06:27;78.00;;;40.03;;
59294;SDS011;45067;44.654;20.200;2024-01-30T07:08:53;76.50;;;41.53;;
59294;SDS011;45067;44.654;20.200;2024-01-30T07:11:20;81.88;;;40.92;;
59294;SDS011;45067;44.654;20.200;2024-01-30T07:13:47;82.05;;;41.10;;
59294;SDS011;45067;44.654;20.200;2024-01-30T07:19:08;70.28;;;38.78;;
59294;SDS011;45067;44.654;20.200;2024-01-30T07:21:34;70.40;;;38.45;;
59294;SDS011;45067;44.654;20.200;2024-01-30T07:24:00;76.15;;;40.17;;
59294;SDS011;45067;44.654;20.200;2024-01-30T07:26:29;78.10;;;39.97;;
59294;SDS011;45067;44.654;20.200;2024-01-30T07:28:55;72.50;;;38.35;;
59294;SDS011;45067;44.654;20.200;2024-01-30T07:31:27;76.00;;;39.33;;
59294;SDS011;45067;44.654;20.200;2024-01-30T07:33:53;75.00;;;39.63;;
59294;SDS011;45067;44.654;20.200;2024-01-30T07:36:19;72.05;;;39.20;;
59294;SDS011;45067;44.654;20.200;2024-01-30T07:38:46;80.45;;;41.92;;
59294;SDS011;45067;44.654;20.200;2024-01-30T07:41:12;79.53;;;41.50;;
59294;SDS011;45067;44.654;20.200;2024-01-30T07:43:38;71.97;;;39.97;;
59294;SDS011;45067;44.654;20.200;2024-01-30T07:46:05;71.82;;;38.85;;
59294;SDS011;45067;44.654;20.200;2024-01-30T07:48:32;72.28;;;39.83;;
59294;SDS011;45067;44.654;20.200;2024-01-30T07:50:59;66.05;;;37.25;;
59294;SDS011;45067;44.654;20.200;2024-01-30T07:53:28;72.85;;;40.25;;
59294;SDS011;45067;44.654;20.200;2024-01-30T07:55:54;69.60;;;38.45;;
59294;SDS011;45067;44.654;20.200;2024-01-30T07:58:20;87.10;;;42.95;;
59294;SDS011;45067;44.654;20.200;2024-01-30T08:00:47;102.07;;;49.15;;
59294;SDS011;45067;44.654;20.200;2024-01-30T08:03:14;98.72;;;50.97;;
59294;SDS011;45067;44.654;20.200;2024-01-30T08:05:42;107.93;;;57.85;;
59294;SDS011;45067;44.654;20.200;2024-01-30T08:08:09;116.40;;;62.58;;
59294;SDS011;45067;44.654;20.200;2024-01-30T08:10:36;111.57;;;59.22;;
59294;SDS011;45067;44.654;20.200;2024-01-30T08:13:02;119.32;;;58.00;;
59294;SDS011;45067;44.654;20.200;2024-01-30T08:15:28;114.78;;;54.42;;
59294;SDS011;45067;44.654;20.200;2024-01-30T08:17:54;97.00;;;50.72;;
59294;SDS011;45067;44.654;20.200;2024-01-30T08:20:23;79.45;;;45.42;;
59294;SDS011;45067;44.654;20.200;2024-01-30T08:22:49;77.20;;;42.45;;
59294;SDS011;45067;44.654;20.200;2024-01-30T08:25:15;73.93;;;41.97;;
59294;SDS011;45067;44.654;20.200;2024-01-30T08:27:41;79.28;;;43.70;;
59294;SDS011;45067;44.654;20.200;2024-01-30T08:30:08;79.70;;;43.85;;
59294;SDS011;45067;44.654;20.200;2024-01-30T08:32:34;84.28;;;45.55;;
59294;SDS011;45067;44.654;20.200;2024-01-30T08:35:00;83.80;;;45.13;;
59294;SDS011;45067;44.654;20.200;2024-01-30T08:37:29;80.95;;;44.33;;
59294;SDS011;45067;44.654;20.200;2024-01-30T08:39:55;82.18;;;45.75;;
59294;SDS011;45067;44.654;20.200;2024-01-30T08:42:21;87.65;;;45.85;;
59294;SDS011;45067;44.654;20.200;2024-01-30T08:44:48;84.65;;;47.08;;
59294;SDS011;45067;44.654;20.200;2024-01-30T08:47:16;78.57;;;44.80;;
59294;SDS011;45067;44.654;20.200;2024-01-30T08:49:43;60.40;;;36.03;;
59294;SDS011;45067;44.654;20.200;2024-01-30T08:52:12;61.35;;;36.22;;
59294;SDS011;45067;44.654;20.200;2024-01-30T08:54:38;58.38;;;34.38;;
59294;SDS011;45067;44.654;20.200;2024-01-30T08:57:04;52.88;;;31.77;;
59294;SDS011;45067;44.654;20.200;2024-01-30T08:59:30;49.45;;;26.02;;
59294;SDS011;45067;44.654;20.200;2024-01-30T09:01:56;40.45;;;22.85;;
59294;SDS011;45067;44.654;20.200;2024-01-30T09:04:24;30.38;;;18.20;;
59294;SDS011;45067;44.654;20.200;2024-01-30T09:06:50;33.47;;;20.92;;
59294;SDS011;45067;44.654;20.200;2024-01-30T09:09:16;31.52;;;19.85;;
59294;SDS011;45067;44.654;20.200;2024-01-30T09:11:43;31.15;;;19.67;;
59294;SDS011;45067;44.654;20.200;2024-01-30T09:14:09;32.38;;;19.85;;
59294;SDS011;45067;44.654;20.200;2024-01-30T09:16:35;29.55;;;19.73;;
59294;SDS011;45067;44.654;20.200;2024-01-30T09:19:01;23.45;;;14.30;;
59294;SDS011;45067;44.654;20.200;2024-01-30T09:21:27;20.02;;;13.07;;
59294;SDS011;45067;44.654;20.200;2024-01-30T09:24:01;22.98;;;12.30;;
59294;SDS011;45067;44.654;20.200;2024-01-30T09:26:31;12.55;;;8.50;;
59294;SDS011;45067;44.654;20.200;2024-01-30T09:28:57;14.65;;;8.57;;
59294;SDS011;45067;44.654;20.200;2024-01-30T09:31:23;14.75;;;9.52;;
59294;SDS011;45067;44.654;20.200;2024-01-30T09:33:49;15.48;;;9.73;;
59294;SDS011;45067;44.654;20.200;2024-01-30T09:36:16;19.88;;;10.20;;
59294;SDS011;45067;44.654;20.200;2024-01-30T09:38:44;15.50;;;9.82;;
59294;SDS011;45067;44.654;20.200;2024-01-30T09:41:10;30.83;;;12.65;;
59294;SDS011;45067;44.654;20.200;2024-01-30T09:43:37;19.83;;;9.98;;
59294;SDS011;45067;44.654;20.200;2024-01-30T09:46:07;22.42;;;10.85;;
59294;SDS011;45067;44.654;20.200;2024-01-30T09:48:34;25.33;;;10.93;;
59294;SDS011;45067;44.654;20.200;2024-01-30T09:51:00;25.70;;;12.65;;
59294;SDS011;45067;44.654;20.200;2024-01-30T09:53:26;20.00;;;10.65;;
59294;SDS011;45067;44.654;20.200;2024-01-30T09:55:53;18.33;;;10.98;;
59294;SDS011;45067;44.654;20.200;2024-01-30T09:58:19;10.63;;;6.57;;
59294;SDS011;45067;44.654;20.200;2024-01-30T10:00:45;12.85;;;7.38;;
59294;SDS011;45067;44.654;20.200;2024-01-30T10:03:11;13.38;;;7.40;;
59294;SDS011;45067;44.654;20.200;2024-01-30T10:05:39;10.27;;;6.60;;
59294;SDS011;45067;44.654;20.200;2024-01-30T10:08:06;10.50;;;5.82;;
59294;SDS011;45067;44.654;20.200;2024-01-30T10:10:35;8.93;;;5.60;;
59294;SDS011;45067;44.654;20.200;2024-01-30T10:13:01;8.68;;;5.65;;
59294;SDS011;45067;44.654;20.200;2024-01-30T10:15:28;12.60;;;6.47;;
59294;SDS011;45067;44.654;20.200;2024-01-30T10:17:54;11.05;;;6.28;;
59294;SDS011;45067;44.654;20.200;2024-01-30T10:20:20;11.20;;;6.57;;
59294;SDS011;45067;44.654;20.200;2024-01-30T10:22:47;9.73;;;6.10;;
59294;SDS011;45067;44.654;20.200;2024-01-30T10:25:14;12.60;;;7.53;;
59294;SDS011;45067;44.654;20.200;2024-01-30T10:27:41;11.18;;;6.70;;
59294;SDS011;45067;44.654;20.200;2024-01-30T10:30:07;11.13;;;6.10;;
59294;SDS011;45067;44.654;20.200;2024-01-30T10:32:34;10.73;;;5.55;;
59294;SDS011;45067;44.654;20.200;2024-01-30T10:35:01;8.70;;;5.15;;
59294;SDS011;45067;44.654;20.200;2024-01-30T10:37:27;11.45;;;6.00;;
59294;SDS011;45067;44.654;20.200;2024-01-30T10:39:56;12.73;;;6.13;;
59294;SDS011;45067;44.654;20.200;2024-01-30T10:42:26;9.32;;;5.38;;
59294;SDS011;45067;44.654;20.200;2024-01-30T10:45:10;9.65;;;5.93;;
59294;SDS011;45067;44.654;20.200;2024-01-30T10:47:44;7.13;;;4.85;;
59294;SDS011;45067;44.654;20.200;2024-01-30T10:50:13;8.00;;;4.82;;
59294;SDS011;45067;44.654;20.200;2024-01-30T10:52:39;8.40;;;4.93;;
59294;SDS011;45067;44.654;20.200;2024-01-30T10:55:07;11.75;;;6.10;;
59294;SDS011;45067;44.654;20.200;2024-01-30T10:57:34;14.52;;;7.20;;
59294;SDS011;45067;44.654;20.200;2024-01-30T11:00:02;18.20;;;9.82;;
59294;SDS011;45067;44.654;20.200;2024-01-30T11:02:30;28.55;;;15.48;;
59294;SDS011;45067;44.654;20.200;2024-01-30T11:04:58;16.63;;;9.68;;
59294;SDS011;45067;44.654;20.200;2024-01-30T11:07:28;13.23;;;7.70;;
59294;SDS011;45067;44.654;20.200;2024-01-30T11:12:24;14.77;;;7.82;;
59294;SDS011;45067;44.654;20.200;2024-01-30T11:15:01;12.93;;;7.20;;
59294;SDS011;45067;44.654;20.200;2024-01-30T11:17:39;15.38;;;6.90;;
59294;SDS011;45067;44.654;20.200;2024-01-30T11:20:05;10.18;;;5.82;;
59294;SDS011;45067;44.654;20.200;2024-01-30T11:22:35;12.77;;;6.88;;
59294;SDS011;45067;44.654;20.200;2024-01-30T11:25:01;13.60;;;6.82;;
59294;SDS011;45067;44.654;20.200;2024-01-30T11:27:28;10.18;;;5.72;;
59294;SDS011;45067;44.654;20.200;2024-01-30T11:30:00;8.00;;;4.60;;
59294;SDS011;45067;44.654;20.200;2024-01-30T11:32:26;6.97;;;4.43;;
59294;SDS011;45067;44.654;20.200;2024-01-30T11:34:52;9.20;;;4.95;;
59294;SDS011;45067;44.654;20.200;2024-01-30T11:37:19;6.95;;;5.93;;
59294;SDS011;45067;44.654;20.200;2024-01-30T11:39:46;9.45;;;6.45;;
59294;SDS011;45067;44.654;20.200;2024-01-30T11:42:12;7.32;;;5.82;;
59294;SDS011;45067;44.654;20.200;2024-01-30T11:44:38;5.95;;;4.82;;
59294;SDS011;45067;44.654;20.200;2024-01-30T11:47:04;5.20;;;4.45;;
59294;SDS011;45067;44.654;20.200;2024-01-30T11:49:30;5.70;;;4.40;;
59294;SDS011;45067;44.654;20.200;2024-01-30T11:51:56;6.75;;;4.63;;
59294;SDS011;45067;44.654;20.200;2024-01-30T11:54:22;6.60;;;4.18;;
59294;SDS011;45067;44.654;20.200;2024-01-30T11:56:48;7.53;;;4.82;;
59294;SDS011;45067;44.654;20.200;2024-01-30T11:59:14;6.32;;;5.35;;
59294;SDS011;45067;44.654;20.200;2024-01-30T12:01:41;6.03;;;5.43;;
59294;SDS011;45067;44.654;20.200;2024-01-30T12:04:07;6.95;;;6.25;;
59294;SDS011;45067;44.654;20.200;2024-01-30T12:06:34;7.25;;;6.15;;
59294;SDS011;45067;44.654;20.200;2024-01-30T12:09:01;7.88;;;6.35;;
59294;SDS011;45067;44.654;20.200;2024-01-30T12:11:43;10.93;;;8.18;;
59294;SDS011;45067;44.654;20.200;2024-01-30T12:14:09;11.45;;;7.30;;
59294;SDS011;45067;44.654;20.200;2024-01-30T12:16:35;7.75;;;6.93;;
59294;SDS011;45067;44.654;20.200;2024-01-30T12:19:01;10.75;;;7.75;;
59294;SDS011;45067;44.654;20.200;2024-01-30T12:21:28;11.13;;;8.70;;
59294;SDS011;45067;44.654;20.200;2024-01-30T12:23:54;9.95;;;8.73;;
59294;SDS011;45067;44.654;20.200;2024-01-30T12:26:21;12.43;;;10.30;;
59294;SDS011;45067;44.654;20.200;2024-01-30T12:28:47;8.75;;;7.85;;
59294;SDS011;45067;44.654;20.200;2024-01-30T12:31:14;7.75;;;7.00;;
59294;SDS011;45067;44.654;20.200;2024-01-30T12:33:40;9.75;;;7.38;;
59294;SDS011;45067;44.654;20.200;2024-01-30T12:36:06;10.18;;;6.97;;
59294;SDS011;45067;44.654;20.200;2024-01-30T12:38:33;14.23;;;9.02;;
59294;SDS011;45067;44.654;20.200;2024-01-30T12:41:01;9.77;;;7.55;;
59294;SDS011;45067;44.654;20.200;2024-01-30T12:43:27;8.02;;;7.15;;
59294;SDS011;45067;44.654;20.200;2024-01-30T12:45:53;13.95;;;8.30;;
59294;SDS011;45067;44.654;20.200;2024-01-30T12:48:19;8.15;;;7.32;;
59294;SDS011;45067;44.654;20.200;2024-01-30T12:50:45;10.13;;;8.05;;
59294;SDS011;45067;44.654;20.200;2024-01-30T12:53:12;7.47;;;6.78;;
59294;SDS011;45067;44.654;20.200;2024-01-30T12:55:38;14.57;;;8.30;;
59294;SDS011;45067;44.654;20.200;2024-01-30T12:58:04;11.10;;;7.55;;
59294;SDS011;45067;44.654;20.200;2024-01-30T13:00:34;9.95;;;7.25;;
59294;SDS011;45067;44.654;20.200;2024-01-30T13:03:00;10.27;;;8.05;;
59294;SDS011;45067;44.654;20.200;2024-01-30T13:05:27;8.77;;;7.95;;
59294;SDS011;45067;44.654;20.200;2024-01-30T13:07:53;7.50;;;6.85;;
59294;SDS011;45067;44.654;20.200;2024-01-30T13:10:20;8.38;;;7.57;;
59294;SDS011;45067;44.654;20.200;2024-01-30T13:12:47;8.73;;;7.82;;
59294;SDS011;45067;44.654;20.200;2024-01-30T13:15:13;10.60;;;8.32;;
59294;SDS011;45067;44.654;20.200;2024-01-30T13:17:39;9.18;;;8.25;;
59294;SDS011;45067;44.654;20.200;2024-01-30T13:20:07;10.40;;;7.15;;
59294;SDS011;45067;44.654;20.200;2024-01-30T13:22:33;8.70;;;7.80;;
59294;SDS011;45067;44.654;20.200;2024-01-30T13:25:00;8.10;;;7.30;;
59294;SDS011;45067;44.654;20.200;2024-01-30T13:27:26;7.68;;;6.93;;
59294;SDS011;45067;44.654;20.200;2024-01-30T13:29:52;7.30;;;6.60;;
59294;SDS011;45067;44.654;20.200;2024-01-30T13:32:18;7.32;;;6.65;;
59294;SDS011;45067;44.654;20.200;2024-01-30T13:34:44;7.60;;;6.90;;
59294;SDS011;45067;44.654;20.200;2024-01-30T13:37:10;9.18;;;7.53;;
59294;SDS011;45067;44.654;20.200;2024-01-30T13:39:36;8.95;;;7.55;;
59294;SDS011;45067;44.654;20.200;2024-01-30T13:42:04;11.73;;;8.27;;
59294;SDS011;45067;44.654;20.200;2024-01-30T13:44:30;10.90;;;9.27;;
59294;SDS011;45067;44.654;20.200;2024-01-30T13:46:56;10.98;;;8.48;;
59294;SDS011;45067;44.654;20.200;2024-01-30T13:49:22;11.52;;;8.13;;
59294;SDS011;45067;44.654;20.200;2024-01-30T13:51:48;12.80;;;8.13;;
59294;SDS011;45067;44.654;20.200;2024-01-30T13:54:14;10.18;;;8.88;;
59294;SDS011;45067;44.654;20.200;2024-01-30T13:56:41;8.60;;;7.70;;
59294;SDS011;45067;44.654;20.200;2024-01-30T13:59:07;8.73;;;7.25;;
59294;SDS011;45067;44.654;20.200;2024-01-30T14:01:33;8.40;;;7.53;;
59294;SDS011;45067;44.654;20.200;2024-01-30T14:03:59;8.35;;;7.05;;
59294;SDS011;45067;44.654;20.200;2024-01-30T14:06:25;7.43;;;6.72;;
59294;SDS011;45067;44.654;20.200;2024-01-30T14:08:51;9.10;;;8.18;;
59294;SDS011;45067;44.654;20.200;2024-01-30T14:11:17;9.35;;;8.30;;
59294;SDS011;45067;44.654;20.200;2024-01-30T14:13:43;9.18;;;7.80;;
59294;SDS011;45067;44.654;20.200;2024-01-30T14:16:10;10.23;;;7.60;;
59294;SDS011;45067;44.654;20.200;2024-01-30T14:18:36;36.15;;;9.10;;
59294;SDS011;45067;44.654;20.200;2024-01-30T14:21:02;17.02;;;13.38;;
59294;SDS011;45067;44.654;20.200;2024-01-30T14:23:28;11.70;;;10.00;;
59294;SDS011;45067;44.654;20.200;2024-01-30T14:25:54;16.55;;;12.43;;
59294;SDS011;45067;44.654;20.200;2024-01-30T14:28:20;14.63;;;11.45;;
59294;SDS011;45067;44.654;20.200;2024-01-30T14:30:46;11.23;;;9.90;;
59294;SDS011;45067;44.654;20.200;2024-01-30T14:33:13;16.58;;;11.82;;
59294;SDS011;45067;44.654;20.200;2024-01-30T14:35:39;14.02;;;9.23;;
59294;SDS011;45067;44.654;20.200;2024-01-30T14:38:05;17.25;;;14.10;;
59294;SDS011;45067;44.654;20.200;2024-01-30T14:40:32;17.42;;;14.18;;
59294;SDS011;45067;44.654;20.200;2024-01-30T14:42:58;16.73;;;14.07;;
59294;SDS011;45067;44.654;20.200;2024-01-30T14:45:24;21.88;;;16.55;;
59294;SDS011;45067;44.654;20.200;2024-01-30T14:47:50;16.80;;;12.73;;
59294;SDS011;45067;44.654;20.200;2024-01-30T14:50:17;22.90;;;15.32;;
59294;SDS011;45067;44.654;20.200;2024-01-30T14:52:44;17.63;;;13.27;;
59294;SDS011;45067;44.654;20.200;2024-01-30T14:55:12;12.50;;;10.95;;
59294;SDS011;45067;44.654;20.200;2024-01-30T14:57:38;17.20;;;11.80;;
59294;SDS011;45067;44.654;20.200;2024-01-30T15:00:07;17.33;;;13.32;;
59294;SDS011;45067;44.654;20.200;2024-01-30T15:02:34;15.45;;;11.68;;
59294;SDS011;45067;44.654;20.200;2024-01-30T15:05:00;12.68;;;10.10;;
59294;SDS011;45067;44.654;20.200;2024-01-30T15:07:27;15.55;;;12.13;;
59294;SDS011;45067;44.654;20.200;2024-01-30T15:09:54;16.85;;;12.32;;
59294;SDS011;45067;44.654;20.200;2024-01-30T15:12:20;20.13;;;14.10;;
59294;SDS011;45067;44.654;20.200;2024-01-30T15:14:46;18.98;;;13.63;;
59294;SDS011;45067;44.654;20.200;2024-01-30T15:17:34;19.83;;;14.95;;
59294;SDS011;45067;44.654;20.200;2024-01-30T15:20:00;33.38;;;20.58;;
59294;SDS011;45067;44.654;20.200;2024-01-30T15:22:26;37.63;;;25.17;;
59294;SDS011;45067;44.654;20.200;2024-01-30T15:24:52;44.88;;;27.92;;
59294;SDS011;45067;44.654;20.200;2024-01-30T15:27:18;39.55;;;25.38;;
59294;SDS011;45067;44.654;20.200;2024-01-30T15:29:45;45.15;;;26.58;;
59294;SDS011;45067;44.654;20.200;2024-01-30T15:32:11;38.17;;;22.85;;
59294;SDS011;45067;44.654;20.200;2024-01-30T15:34:37;30.13;;;17.33;;
59294;SDS011;45067;44.654;20.200;2024-01-30T15:37:03;30.13;;;18.58;;
59294;SDS011;45067;44.654;20.200;2024-01-30T15:39:29;32.83;;;20.98;;
59294;SDS011;45067;44.654;20.200;2024-01-30T15:41:55;27.85;;;19.40;;
59294;SDS011;45067;44.654;20.200;2024-01-30T15:44:23;31.38;;;19.50;;
59294;SDS011;45067;44.654;20.200;2024-01-30T15:46:49;36.95;;;22.33;;
59294;SDS011;45067;44.654;20.200;2024-01-30T15:49:15;41.15;;;23.95;;
59294;SDS011;45067;44.654;20.200;2024-01-30T15:51:41;48.45;;;25.55;;
59294;SDS011;45067;44.654;20.200;2024-01-30T15:54:07;46.38;;;24.98;;
59294;SDS011;45067;44.654;20.200;2024-01-30T15:56:34;53.65;;;27.05;;
59294;SDS011;45067;44.654;20.200;2024-01-30T15:59:02;49.45;;;26.98;;
59294;SDS011;45067;44.654;20.200;2024-01-30T16:01:28;40.90;;;21.80;;
59294;SDS011;45067;44.654;20.200;2024-01-30T16:03:58;46.70;;;26.17;;
59294;SDS011;45067;44.654;20.200;2024-01-30T16:06:24;47.47;;;29.70;;
59294;SDS011;45067;44.654;20.200;2024-01-30T16:08:50;56.42;;;32.22;;
59294;SDS011;45067;44.654;20.200;2024-01-30T16:11:16;38.70;;;24.95;;
59294;SDS011;45067;44.654;20.200;2024-01-30T16:13:43;29.77;;;18.48;;
59294;SDS011;45067;44.654;20.200;2024-01-30T16:16:09;34.65;;;20.52;;
59294;SDS011;45067;44.654;20.200;2024-01-30T16:18:36;38.72;;;24.20;;
59294;SDS011;45067;44.654;20.200;2024-01-30T16:21:02;41.42;;;26.45;;